Akobo Airport


Codes: HSAK/
Name: Akobo Airport
City: Akobo
Country: South Sudan
Elevation: 0 ft.
Wikipedia:

Photos at Akobo Airport


   Photos courtesy of SpottingLog. You can add your own sightings and photos by signing up for a free trial today.



No photos found.

Weather at Akobo Airport


Time (UTC)DescriptionTempratureWindCloud coverageVisibilityPressureHumidity
13-Jun-2024 03:00Light Rain25°C4 mph, SE97%10000m1012hPa80%
13-Jun-2024 06:00Moderate Rain24°C4 mph, NE99%10000m1015hPa82%
13-Jun-2024 09:00Light Rain24°C2 mph, NE100%10000m1015hPa82%
13-Jun-2024 12:00Overcast Clouds25°C2 mph, N100%10000m1013hPa81%
13-Jun-2024 15:00Overcast Clouds27°C2 mph, NW96%10000m1011hPa69%
13-Jun-2024 18:00Overcast Clouds24°C2 mph, NW92%10000m1011hPa81%
13-Jun-2024 21:00Overcast Clouds24°C2 mph, N87%10000m1012hPa82%
14-Jun-2024 00:00Overcast Clouds23°C4 mph, NE92%10000m1012hPa86%
14-Jun-2024 03:00Overcast Clouds23°C4 mph, E100%10000m1012hPa83%
14-Jun-2024 06:00Overcast Clouds26°C4 mph, E100%10000m1014hPa76%
14-Jun-2024 09:00Broken Clouds31°C7 mph, SE66%10000m1012hPa49%
14-Jun-2024 12:00Broken Clouds31°C4 mph, S77%10000m1010hPa47%
14-Jun-2024 15:00Broken Clouds31°C4 mph, SW73%10000m1009hPa47%
14-Jun-2024 18:00Broken Clouds27°C2 mph, SW58%10000m1009hPa58%
14-Jun-2024 21:00Broken Clouds26°C2 mph, N76%10000m1010hPa56%
15-Jun-2024 00:00Broken Clouds25°C4 mph, NE84%10000m1009hPa60%
15-Jun-2024 03:00Overcast Clouds24°C4 mph, E99%10000m1010hPa69%
15-Jun-2024 06:00Light Rain27°C2 mph, SE96%10000m1012hPa61%
15-Jun-2024 09:00Broken Clouds33°C7 mph, SE57%10000m1010hPa44%
15-Jun-2024 12:00Broken Clouds35°C7 mph, S53%10000m1007hPa36%
15-Jun-2024 15:00Broken Clouds33°C4 mph, S72%10000m1006hPa40%
15-Jun-2024 18:00Scattered Clouds29°C2 mph, SW44%10000m1007hPa51%
15-Jun-2024 21:00Scattered Clouds28°C4 mph, E41%10000m1008hPa55%
16-Jun-2024 00:00Scattered Clouds26°C4 mph, SE37%10000m1008hPa67%
16-Jun-2024 03:00Overcast Clouds26°C4 mph, SE92%10000m1009hPa70%
16-Jun-2024 06:00Overcast Clouds28°C7 mph, NE90%10000m1011hPa60%
16-Jun-2024 09:00Broken Clouds34°C2 mph, S79%10000m1009hPa38%
16-Jun-2024 12:00Broken Clouds35°C4 mph, S76%10000m1006hPa33%
16-Jun-2024 15:00Broken Clouds34°C2 mph, S84%10000m1006hPa35%
16-Jun-2024 18:00Overcast Clouds30°C2 mph, S89%10000m1007hPa47%
16-Jun-2024 21:00Overcast Clouds27°C4 mph, E97%10000m1009hPa59%
17-Jun-2024 00:00Overcast Clouds27°C4 mph, E97%10000m1008hPa64%
17-Jun-2024 03:00Overcast Clouds26°C4 mph, E100%10000m1010hPa68%
17-Jun-2024 06:00Light Rain28°C7 mph, E100%10000m1011hPa57%
17-Jun-2024 09:00Overcast Clouds34°C9 mph, E100%10000m1010hPa34%
17-Jun-2024 12:00Overcast Clouds36°C4 mph, S100%10000m1007hPa27%
17-Jun-2024 15:00Overcast Clouds35°C4 mph, W100%10000m1006hPa32%
17-Jun-2024 18:00Overcast Clouds30°C2 mph, N100%10000m1007hPa42%
17-Jun-2024 21:00Broken Clouds28°C4 mph, NE70%10000m1008hPa46%
18-Jun-2024 00:00Overcast Clouds26°C9 mph, E85%10000m1009hPa60%